Weather observations for the past three days for
Kill Devil Hills, First Flight Airport
Metric (Imperial)
Date Time (edt) Wind (kph) Vis. (km) Weather Sky Cond. Temperature (ºC) Relative Humidity Wind Chill (°C) Heat Index (°C) Pressure Precipitation (cm)
Air Dwpt 6 hour altimeter (cm) sea level (mb) 1 hr 3 hr 6 hr
Max. Min.
06 05:15 S 9 16.09 Fair CLR 18.4 14.3 77% 76.23 0.0
06 04:55 S 7 16.09 Fair CLR 18.5 14.2 76% 76.23 0.0
06 04:35 S 11 16.09 Fair CLR 18.5 14.2 76% 76.2 0.0
06 04:15 S 9 16.09 Fair CLR 18.5 14.4 77% 76.17 0.0
06 03:55 S 9 16.09 Fair CLR 18.3 14.7 80% 76.2 0.0
06 03:35 S 9 16.09 Fair CLR 18.1 14.5 80% 76.2 0.0
06 03:15 S 9 16.09 Fair CLR 18.1 14.2 78% 76.2 0.0
06 02:55 S 9 16.09 Fair CLR 18 14.2 79% 76.2 0.0
06 02:35 S 9 16.09 Fair CLR 18 14.4 80% 76.23 0.0
06 02:15 S 6 16.09 Fair CLR 18.1 14.3 79% 76.25 0.0
06 01:55 SW 7 16.09 Fair CLR 18.3 14.2 29.6 -7 77% 76.25 0.0
06 01:35 S 11 16.09 Fair CLR 18.4 14 76% 76.25 0.0
06 01:15 SW 11 16.09 Fair CLR 18.6 13.9 74% 76.28 0.0
06 00:35 SW 11 16.09 Fair CLR 18.5 14.5 78% 76.28 0.0
06 00:15 S 13 16.09 Fair CLR 18.5 14.7 79% 76.3 0.0
05 23:55 S 11 16.09 Fair CLR 18.5 14.8 79% 76.3 0.0
05 23:35 S 11 16.09 Fair CLR 18.5 15.1 81% 76.3 0.0
05 23:15 S 11 16.09 Fair CLR 18.6 15.4 82% 76.3 0.0
05 22:55 S 9 16.09 Fair CLR 18.6 15.2 81% 76.3 0.0
05 22:35 S 7 16.09 Fair CLR 18.7 15 79% 76.3 0.0
05 22:15 S 11 16.09 Fair CLR 18.8 15.1 79% 76.3 0.0
05 21:55 S 15 16.09 Fair CLR 19 15.5 80% 76.33 0.0
05 21:35 S 13 16.09 Fair CLR 19 15.3 79% 76.3 0.0
05 21:15 S 9 16.09 Fair CLR 19.3 15 76% 76.3 0.0
05 20:55 S 9 16.09 Fair CLR 19.6 14.9 74% 76.3 0.0
05 20:35 S 13 G 26 16.09 Fair CLR 19.8 14.6 72% 76.28 0.0
05 20:15 S 13 16.09 Fair CLR 20 14.2 69% 76.25 0.0
05 19:55 S 13 16.09 Fair CLR 20.2 13.8 29.6 -7 67% 76.25 0.0
05 19:35 S 13 G 31 16.09 Fair CLR 20.5 13.6 65% 76.25 0.0
05 19:15 S 15 G 30 16.09 Fair CLR 20.8 13.5 63% 76.23 0.0
05 18:55 S 15 G 28 16.09 Fair CLR 20.9 13.6 63% 76.23 0.0
05 18:35 S 11 G 28 16.09 Fair CLR 21.4 13.6 61% 76.23 0.0
05 18:15 S 13 G 28 16.09 Fair CLR 22.2 13.6 58% 76.23 0.0
05 17:55 S 17 G 31 16.09 Fair CLR 22.3 13.7 58% 76.23 0.0
05 17:35 S 15 G 33 16.09 Fair CLR 22.7 13.7 57% 76.23 0.0
05 17:15 S 15 G 31 16.09 Fair CLR 23 13.5 55% 76.23 0.0
05 16:55 S 15 G 30 16.09 Fair CLR 23.2 13.6 55% 76.23 0.0
05 16:35 S 13 G 31 16.09 Fair CLR 23.2 13.4 54% 76.23 0.0
05 16:15 S 17 G 33 16.09 Fair CLR 23.4 13.5 54% 76.25 0.0
05 15:55 S 19 G 35 16.09 Fair CLR 23.4 13.9 55% 76.25 0.0
05 15:35 S 20 G 37 16.09 Fair CLR 23.5 14.2 56% 76.28 0.0
05 15:15 S 19 G 37 16.09 Fair CLR 23.3 14.7 59% 76.3 0.0
05 14:55 S 20 G 30 16.09 Fair CLR 23.5 14.8 58% 76.3 0.0
05 14:35 S 19 G 31 16.09 Fair CLR 23.7 14.4 56% 76.3 0.0
05 14:15 S 20 G 30 16.09 Fair CLR 23.9 14 54% 25 76.3 0.0
05 13:55 S 19 G 30 16.09 Fair CLR 24 13.7 29.6 -7 53% 25 76.3 0.0 0.3
05 13:35 S 17 G 33 16.09 Fair CLR 23.9 13.3 52% 25 76.3 0.0
05 13:15 S 17 G 31 16.09 Fair CLR 23.8 13.2 52% 76.33 0.0
05 12:55 S 13 G 28 16.09 Fair CLR 24.1 13.2 51% 25 76.33 0.0
05 12:35 S 15 16.09 Fair CLR 23.8 12.8 50% 76.35 0.0
05 12:15 S 11 16.09 Fair CLR 23.5 12.4 50% 76.35 0.0
05 11:35 SW 15 16.09 Fair CLR 23.6 11.6 47% 76.38 0.0
05 11:15 SW 11 16.09 Fair CLR 23.2 11.7 48% 76.38 0.0
05 10:15 SW 15 16.09 Fair CLR 21.9 11.7 52% 76.38 0.0
05 09:55 SW 15 16.09 Fair CLR 21.1 12.2 57% 76.38 0.0
05 09:35 SW 11 16.09 Fair CLR 20.4 12.9 62% 76.38 0.0
05 09:15 SW 11 16.09 Fair CLR 19.8 13.2 66% 76.38 0.0
05 08:55 SW 11 16.09 Fair CLR 19.1 13.3 69% 76.38 0.0
05 08:35 SW 11 16.09 Fair CLR 18.4 13.5 73% 76.38 0.0
05 08:15 SW 13 16.09 Fair CLR 17.7 13.5 77% 76.38 0.0
05 07:55 SW 9 16.09 Fair CLR 17.1 13.5 29.6 -7 80% 76.38 0.0
05 07:35 SW 9 16.09 Fair CLR 16.7 13.5 82% 76.35 0.0
05 07:15 SW 9 16.09 Fair CLR 16.4 13.3 82% 76.35 0.0
05 06:55 SW 7 16.09 Fair CLR 16.2 13.1 82% 76.33 0.0
05 06:35 SW 7 16.09 Fair CLR 16.1 13 82% 76.3 0.0
05 06:15 SW 9 16.09 Fair CLR 16.1 12.8 81% 76.3 0.0
05 05:55 SW 9 16.09 Fair CLR 16.1 12.8 81% 76.3 0.0
05 05:35 SW 11 16.09 Fair CLR 16.2 12.7 80% 76.28 0.0
05 05:15 SW 9 16.09 Fair CLR 16.4 12.7 79% 76.28 0.0
05 04:55 SW 9 16.09 Fair CLR 16.4 12.9 80% 76.25 0.0
05 04:35 SW 9 16.09 Fair CLR 16.4 12.9 80% 76.25 0.0
05 04:15 SW 11 16.09 Fair CLR 16.3 13 81% 76.25 0.0
05 03:55 SW 13 16.09 Fair CLR 16.3 13 81% 76.23 0.0
05 03:35 SW 15 16.09 Fair CLR 16.3 13.1 81% 76.23 0.0
05 03:15 SW 11 16.09 Fair CLR 16.2 13.1 82% 76.23 0.0
05 02:55 SW 11 16.09 Fair CLR 16.2 13.2 83% 76.23 0.0
05 02:35 SW 9 16.09 Fair CLR 16.2 13.4 84% 76.23 0.0
05 02:15 SW 11 16.09 Fair CLR 16.3 13.2 82% 76.23 0.0
05 01:55 SW 9 16.09 Fair CLR 16.5 13.3 29.6 -7 82% 76.23 0.0
05 01:35 SW 9 16.09 Fair CLR 16.5 13.3 82% 76.25 0.0
05 01:15 SW 11 16.09 Fair CLR 16.6 13.4 82% 76.25 0.0
05 00:55 S 9 16.09 Fair CLR 16.8 13.1 79% 76.25 0.0
05 00:35 SW 11 16.09 Fair CLR 17 12.9 77% 76.25 0.0
05 00:15 S 13 16.09 Fair CLR 17.2 12.6 75% 76.25 0.0
04 23:55 SW 11 16.09 Fair CLR 17.3 12.5 74% 76.25 0.0
04 23:35 S 9 16.09 Fair CLR 17.3 12.3 73% 76.25 0.0
04 23:15 SW 9 16.09 Fair CLR 17.5 12.4 72% 76.25 0.0
04 22:55 SW 13 16.09 Fair CLR 17.5 12.3 72% 76.25 0.0
04 22:35 S 13 16.09 Fair CLR 17.5 12.3 72% 76.25 0.0
04 22:15 SW 13 16.09 Fair CLR 17.7 12.1 70% 76.25 0.0
04 21:55 S 15 G 30 16.09 Fair CLR 17.8 11.4 66% 76.23 0.0
04 21:35 SW 15 16.09 Fair CLR 18 11.1 64% 76.23 0.0
04 21:15 S 13 16.09 Fair CLR 18 11.1 64% 76.23 0.0
04 20:55 S 13 16.09 Fair CLR 18.1 11.1 64% 76.17 0.0
04 20:35 S 11 16.09 Fair CLR 18.3 10.9 62% 76.17 0.0
04 20:15 S 13 16.09 Fair CLR 18.5 10.6 60% 76.15 0.0
04 19:55 S 13 G 28 16.09 Fair CLR 18.7 10.3 29.6 -7 58% 76.15 0.0
04 19:35 S 13 G 31 16.09 Fair CLR 19 10.2 57% 76.15 0.0
04 19:15 S 9 G 31 16.09 Fair CLR 19.3 10.1 55% 76.12 0.0
04 18:55 S 15 G 28 16.09 Fair CLR 19.4 10.2 55% 76.12 0.0
04 18:35 S 15 G 31 16.09 Fair CLR 19.6 10 54% 76.12 0.0
04 18:15 S 15 G 26 16.09 Fair CLR 19.9 9.7 52% 76.12 0.0
04 17:55 S 11 G 33 16.09 Fair CLR 20.1 10.3 53% 76.12 0.0
04 17:35 S 15 16.09 Fair CLR 20.2 11.2 56% 76.15 0.0
04 17:15 S 17 G 31 16.09 Fair CLR 20.4 11.7 58% 76.15 0.0
04 16:55 S 17 G 30 16.09 Fair CLR 20.5 11.6 57% 76.15 0.0
04 16:35 S 19 G 30 16.09 Fair CLR 20.7 11.7 56% 76.15 0.0
04 16:10 S 20 G 35 16.09 Fair CLR 20.6 11.3 55% 76.15 0.0
04 15:55 S 20 G 33 16.09 Fair CLR 20.9 11.6 55% 76.17 0.0
04 15:35 S 17 G 33 16.09 Fair CLR 20.7 11.8 57% 76.17 0.0
04 15:15 S 19 G 37 16.09 Fair CLR 20.8 11.7 56% 76.17 0.0
04 14:55 S 19 G 35 16.09 Fair CLR 21 11.7 55% 76.2 0.0
04 14:15 S 20 G 28 16.09 Fair CLR 21.5 11.3 52% 76.2 0.0
04 13:55 S 15 16.09 Fair CLR 21.4 11.5 29.6 -7 53% 76.23 0.0
04 13:35 S 9 16.09 Fair CLR 21.3 11.6 54% 76.25 0.0
04 13:15 S 17 G 26 16.09 Fair CLR 21.3 11.2 53% 76.28 0.0
04 12:55 S 13 16.09 Fair CLR 21.4 10.3 49% 76.28 0.0
04 12:35 S 7 16.09 Fair CLR 21.5 8.8 44% 76.28 0.0
04 12:15 SW 13 16.09 Fair CLR 21.2 9 46% 76.3 0.0
04 11:55 SW 7 16.09 Fair CLR 21 9 46% 76.3 0.0
04 11:35 S 11 16.09 Fair CLR 20.5 9.6 50% 76.3 0.0
04 11:15 SW 15 16.09 Fair CLR 20 9.6 51% 76.33 0.0
04 10:55 SW 15 16.09 Fair CLR 19.4 9.3 52% 76.33 0.0
04 10:35 W 19 16.09 Fair CLR 19 9.7 55% 76.33 0.0
04 10:15 SW 15 16.09 Fair CLR 18.5 10 58% 76.33 0.0
04 09:55 SW 15 16.09 Fair CLR 18.1 10.1 60% 76.33 0.0
04 09:35 SW 15 16.09 Fair CLR 17.3 10.1 63% 76.35 0.0
04 09:15 SW 11 16.09 Fair CLR 16.6 10.3 67% 76.35 0.0
04 08:50 SW 9 16.09 Fair CLR 15.6 10.2 70% 76.38 0.0
04 08:35 SW 9 16.09 Fair CLR 15.3 9.9 70% 76.38 0.0
04 07:55 SW 9 16.09 Fair CLR 14.1 10 29.6 -7 77% 76.38 0.0
04 07:35 SW 7 16.09 Fair CLR 13.4 10 80% 76.4 0.0
04 07:15 SW 7 16.09 Fair CLR 13 9.9 82% 76.38 0.0
04 06:55 SW 7 16.09 Fair CLR 12.8 9.7 82% 76.38 0.0
04 06:35 SW 7 16.09 Fair CLR 12.5 9.6 83% 76.38 0.0
04 06:15 S 6 16.09 Partly Cloudy SCT120 12.2 9.4 83% 76.38 0.0
04 05:55 Calm 16.09 Fair CLR 12.2 9.5 84% 76.38 0.0
04 05:35 Calm 16.09 Fair CLR 12.1 9.6 85% 76.38 0.0
04 05:15 Calm 16.09 Fair CLR 12.1 9.7 85% 76.38 0.0
04 04:55 S 6 16.09 Fair CLR 12.4 9.9 85% 76.38 0.0
04 04:35 S 6 16.09 Fair CLR 12.4 10.1 86% 76.38 0.0
04 04:15 S 6 16.09 Fair CLR 12.2 10 87% 76.38 0.0
04 03:55 S 6 16.09 Fair CLR 12.2 9.6 84% 76.38 0.0
04 03:35 S 6 16.09 Fair CLR 12.3 9 80% 76.4 0.0
04 03:15 S 6 16.09 Fair CLR 12.1 8.9 81% 76.38 0.0
04 02:55 S 6 16.09 Fair CLR 11.9 9.1 83% 76.38 0.0
04 02:35 S 6 16.09 Fair CLR 11.7 9.4 86% 76.38 0.0
04 02:15 S 6 16.09 Fair CLR 11.3 9.1 86% 76.38 0.0
04 01:55 SE 6 16.09 Fair CLR 11.1 8.5 29.6 -7 84% 76.4 0.0
04 01:35 S 6 16.09 Fair CLR 10.7 7.7 82% 76.4 0.0
04 01:15 SE 7 16.09 Fair CLR 10.2 6.9 80% 76.4 0.0
04 00:55 Calm 16.09 Fair CLR 9.8 6.5 80% 76.4 0.0
04 00:35 SE 6 16.09 Fair CLR 9.9 6.3 79% 76.4 0.0
04 00:15 SE 7 16.09 Fair CLR 10 6.1 77% 9 76.4 0.0
03 23:55 SE 7 16.09 Fair CLR 10.1 6 76% 76.43 0.0
03 23:35 SE 9 16.09 Fair CLR 10 5.8 75% 9 76.43 0.0
03 23:15 SE 7 16.09 Fair CLR 10 5.4 73% 9 76.43 0.0
03 22:55 SE 7 16.09 Fair CLR 10 5.2 72% 9 76.43 0.0
03 22:35 SE 7 16.09 Fair CLR 10 5 71% 9 76.43 0.0
03 22:15 SE 7 16.09 Fair CLR 10.3 4.7 69% 76.43 0.0
03 21:55 SE 7 16.09 Fair CLR 10.6 4.2 65% 76.4 0.0
03 21:35 SE 13 16.09 Fair CLR 10.8 4 63% 76.4 0.0
03 21:15 SE 11 16.09 Fair CLR 10.8 3.9 63% 76.35 0.0
03 20:55 SE 11 16.09 Fair CLR 10.8 4 63% 76.35 0.0
03 20:35 SE 9 16.09 Fair CLR 10.8 3.9 63% 76.33 0.0
03 20:15 SE 11 16.09 Fair CLR 11 3.9 62% 76.3 0.0
03 19:55 SE 11 16.09 Fair CLR 11.2 3.7 29.6 -7 60% 76.3 0.0
03 19:35 SE 15 16.09 Fair CLR 11.7 3.9 59% 76.3 0.0
03 19:15 SE 13 16.09 Fair CLR 12.1 3.7 57% 76.28 0.0
03 18:55 SE 13 16.09 Fair CLR 12.4 3.5 55% 76.28 0.0
03 18:35 E 9 16.09 Fair CLR 12.7 3.4 53% 76.25 0.0
03 18:15 E 7 16.09 Fair CLR 13 3.6 53% 76.25 0.0
03 17:55 NE 7 16.09 Fair CLR 13.1 3.3 52% 76.25 0.0
03 17:35 E 9 16.09 Fair CLR 13.2 3.2 51% 76.25 0.0
03 17:15 E 11 16.09 Fair CLR 13.7 3.6 51% 76.23 0.0
03 16:55 E 15 16.09 Fair CLR 13.9 3.6 50% 76.23 0.0
03 16:35 E 7 16.09 Fair CLR 13.8 3.7 51% 76.23 0.0
03 16:15 NE 9 16.09 Fair CLR 14.3 4 50% 76.23 0.0
03 15:55 W 7 16.09 Fair CLR 14.7 3.9 49% 76.25 0.0
03 15:35 Calm 16.09 Fair CLR 15.6 2.5 42% 76.28 0.0
03 15:15 NW 11 16.09 Fair CLR 15.4 2.1 41% 76.28 0.0
03 14:55 W 15 16.09 Fair CLR 15.4 1.7 40% 76.3 0.0
03 14:35 W 9 16.09 Fair CLR 15.4 1.4 39% 76.3 0.0
03 14:15 W 15 16.09 Fair CLR 15.2 1.6 40% 76.3 0.0
03 13:55 W 11 16.09 Fair CLR 15 1.4 29.6 -7 40% 76.3 0.0
03 13:35 NW 17 G 30 16.09 Fair CLR 15 1.1 39% 76.3 0.0
03 13:15 W 20 G 30 16.09 Fair CLR 14.9 1.1 39% 76.3 0.0
03 12:55 W 15 G 28 16.09 Fair CLR 14.6 1 40% 76.3 0.0
03 12:35 W 19 G 31 16.09 Fair CLR 14.4 1.4 42% 76.33 0.0
03 12:15 NW 19 G 28 16.09 Partly Cloudy SCT055 14.5 1.5 42% 76.33 0.0
03 11:55 NW 15 16.09 Partly Cloudy SCT055 14.4 1.4 42% 76.33 0.0
03 11:35 NW 15 16.09 Partly Cloudy SCT060 14.2 1.8 43% 76.33 0.0
03 11:15 NW 9 16.09 Partly Cloudy SCT060 13.8 1.8 44% 76.33 0.0
03 10:55 NW 13 16.09 Partly Cloudy SCT070 13.6 1.6 44% 76.3 0.0
03 10:35 NW 11 16.09 Partly Cloudy SCT070 13.4 1.4 44% 76.3 0.0
03 10:15 NW 15 G 26 16.09 Partly Cloudy SCT070 13 1.1 45% 76.3 0.0
03 09:55 NW 19 G 26 16.09 Partly Cloudy SCT060 12.7 1 45% 76.3 0.0
03 09:35 NW 15 G 26 16.09 Mostly Cloudy SCT060 BKN075 13.2 2.7 49% 76.28 0.0
03 09:15 NW 11 G 26 16.09 Partly Cloudy SCT038 SCT065 SCT075 13.1 4.1 55% 76.28 0.0
03 08:55 NW 15 G 28 16.09 Fair CLR 12.8 4 55% 76.25 0.0
03 08:35 NW 13 16.09 Partly Cloudy SCT060 12.6 4.2 57% 76.23 0.0
03 08:15 N 7 G 26 16.09 Fair CLR 12.6 4.4 58% 76.2 0.0
03 07:55 N 15 16.09 Fair CLR 12.1 4.9 29.6 -7 62% 76.17 0.0
03 07:35 N 11 16.09 Fair CLR 11.4 6.2 71% 76.17 0.0
03 07:15 N 7 16.09 Fair CLR 11 5.9 71% 76.15 0.0
03 06:35 NW 9 16.09 Partly Cloudy SCT085 11 5.5 69% 76.1 0.0
03 06:15 NW 9 16.09 Overcast OVC085 10.8 5.3 69% 76.07 0.0
03 05:55 NW 7 16.09 Mostly Cloudy BKN085 10.7 5.1 69% 76.05 0.0
03 05:35 NW 9 16.09 Fair CLR 10.9 4.9 67% 76.02 0.0
Date Time (edt) Wind (kph) Vis. (km) Weather Sky Cond. Air Dwpt Max. Min. Relative Humidity Wind Chill (°C) Heat Index (°C) altimeter (cm) sea level (mb) 1 hr 3 hr 6 hr
6 hour
Temperature (ºC) Pressure Precipitation (cm)